sensor_id;sensor_type;location;lat;lon;timestamp;P1;durP1;ratioP1;P2;durP2;ratioP2
23179;SDS011;11758;45.756;11.432;2022-12-24T00:01:00;42.58;;;23.77;;
23179;SDS011;11758;45.756;11.432;2022-12-24T00:03:27;41.38;;;23.15;;
23179;SDS011;11758;45.756;11.432;2022-12-24T00:05:53;42.15;;;23.52;;
23179;SDS011;11758;45.756;11.432;2022-12-24T00:08:22;39.03;;;22.42;;
23179;SDS011;11758;45.756;11.432;2022-12-24T00:10:52;47.08;;;25.75;;
23179;SDS011;11758;45.756;11.432;2022-12-24T00:13:39;42.78;;;24.08;;
23179;SDS011;11758;45.756;11.432;2022-12-24T00:16:05;43.70;;;21.38;;
23179;SDS011;11758;45.756;11.432;2022-12-24T00:18:43;39.85;;;21.95;;
23179;SDS011;11758;45.756;11.432;2022-12-24T00:21:10;39.50;;;21.58;;
23179;SDS011;11758;45.756;11.432;2022-12-24T00:23:39;41.93;;;22.07;;
23179;SDS011;11758;45.756;11.432;2022-12-24T00:26:06;42.25;;;20.90;;
23179;SDS011;11758;45.756;11.432;2022-12-24T00:28:33;37.22;;;21.23;;
23179;SDS011;11758;45.756;11.432;2022-12-24T00:30:59;37.17;;;20.88;;
23179;SDS011;11758;45.756;11.432;2022-12-24T00:33:25;39.70;;;21.48;;
23179;SDS011;11758;45.756;11.432;2022-12-24T00:35:52;33.85;;;19.73;;
23179;SDS011;11758;45.756;11.432;2022-12-24T00:38:24;33.42;;;20.02;;
23179;SDS011;11758;45.756;11.432;2022-12-24T00:40:50;32.47;;;18.73;;
23179;SDS011;11758;45.756;11.432;2022-12-24T00:43:17;37.55;;;20.25;;
23179;SDS011;11758;45.756;11.432;2022-12-24T00:45:43;40.03;;;21.95;;
23179;SDS011;11758;45.756;11.432;2022-12-24T00:48:10;37.80;;;22.88;;
23179;SDS011;11758;45.756;11.432;2022-12-24T00:50:36;38.85;;;21.77;;
23179;SDS011;11758;45.756;11.432;2022-12-24T00:53:02;41.58;;;23.35;;
23179;SDS011;11758;45.756;11.432;2022-12-24T00:55:29;41.35;;;23.20;;
23179;SDS011;11758;45.756;11.432;2022-12-24T00:57:56;43.03;;;23.67;;
23179;SDS011;11758;45.756;11.432;2022-12-24T01:00:23;48.53;;;22.67;;
23179;SDS011;11758;45.756;11.432;2022-12-24T01:02:49;40.42;;;22.77;;
23179;SDS011;11758;45.756;11.432;2022-12-24T01:05:15;44.75;;;22.65;;
23179;SDS011;11758;45.756;11.432;2022-12-24T01:07:45;36.13;;;20.92;;
23179;SDS011;11758;45.756;11.432;2022-12-24T01:10:12;38.67;;;21.20;;
23179;SDS011;11758;45.756;11.432;2022-12-24T01:12:39;35.92;;;19.85;;
23179;SDS011;11758;45.756;11.432;2022-12-24T01:15:05;36.53;;;20.98;;
23179;SDS011;11758;45.756;11.432;2022-12-24T01:17:32;34.85;;;19.58;;
23179;SDS011;11758;45.756;11.432;2022-12-24T01:19:59;35.65;;;20.05;;
23179;SDS011;11758;45.756;11.432;2022-12-24T01:22:25;34.40;;;19.55;;
23179;SDS011;11758;45.756;11.432;2022-12-24T01:24:52;36.05;;;20.38;;
23179;SDS011;11758;45.756;11.432;2022-12-24T01:27:18;41.35;;;21.02;;
23179;SDS011;11758;45.756;11.432;2022-12-24T01:29:44;34.95;;;20.75;;
23179;SDS011;11758;45.756;11.432;2022-12-24T01:32:11;36.13;;;20.00;;
23179;SDS011;11758;45.756;11.432;2022-12-24T01:34:37;36.10;;;19.25;;
23179;SDS011;11758;45.756;11.432;2022-12-24T01:37:04;35.47;;;18.63;;
23179;SDS011;11758;45.756;11.432;2022-12-24T01:39:31;31.85;;;18.02;;
23179;SDS011;11758;45.756;11.432;2022-12-24T01:41:57;30.58;;;17.40;;
23179;SDS011;11758;45.756;11.432;2022-12-24T01:44:43;31.40;;;16.77;;
23179;SDS011;11758;45.756;11.432;2022-12-24T01:47:15;34.60;;;17.52;;
23179;SDS011;11758;45.756;11.432;2022-12-24T01:49:48;27.77;;;16.42;;
23179;SDS011;11758;45.756;11.432;2022-12-24T01:52:16;28.98;;;15.48;;
23179;SDS011;11758;45.756;11.432;2022-12-24T01:54:46;27.23;;;14.70;;
23179;SDS011;11758;45.756;11.432;2022-12-24T01:57:27;26.55;;;14.38;;
23179;SDS011;11758;45.756;11.432;2022-12-24T01:59:55;23.23;;;13.95;;
23179;SDS011;11758;45.756;11.432;2022-12-24T02:02:24;22.38;;;14.10;;
23179;SDS011;11758;45.756;11.432;2022-12-24T02:04:58;27.50;;;14.80;;
23179;SDS011;11758;45.756;11.432;2022-12-24T02:07:27;24.88;;;14.63;;
23179;SDS011;11758;45.756;11.432;2022-12-24T02:09:55;23.42;;;14.00;;
23179;SDS011;11758;45.756;11.432;2022-12-24T02:12:21;25.08;;;14.57;;
23179;SDS011;11758;45.756;11.432;2022-12-24T02:14:48;26.27;;;15.05;;
23179;SDS011;11758;45.756;11.432;2022-12-24T02:17:17;24.50;;;13.95;;
23179;SDS011;11758;45.756;11.432;2022-12-24T02:22:13;24.77;;;14.65;;
23179;SDS011;11758;45.756;11.432;2022-12-24T02:30:03;30.73;;;16.48;;
23179;SDS011;11758;45.756;11.432;2022-12-24T02:33:13;33.03;;;17.42;;
23179;SDS011;11758;45.756;11.432;2022-12-24T02:40:48;34.75;;;19.08;;
23179;SDS011;11758;45.756;11.432;2022-12-24T02:43:18;38.38;;;19.15;;
23179;SDS011;11758;45.756;11.432;2022-12-24T02:45:45;35.53;;;20.80;;
23179;SDS011;11758;45.756;11.432;2022-12-24T02:48:12;35.00;;;18.63;;
23179;SDS011;11758;45.756;11.432;2022-12-24T02:50:52;31.08;;;18.13;;
23179;SDS011;11758;45.756;11.432;2022-12-24T02:53:18;35.55;;;18.70;;
23179;SDS011;11758;45.756;11.432;2022-12-24T03:01:06;42.67;;;21.27;;
23179;SDS011;11758;45.756;11.432;2022-12-24T03:03:46;45.85;;;23.23;;
23179;SDS011;11758;45.756;11.432;2022-12-24T03:08:52;40.35;;;19.88;;
23179;SDS011;11758;45.756;11.432;2022-12-24T03:11:20;43.00;;;20.73;;
23179;SDS011;11758;45.756;11.432;2022-12-24T03:13:46;32.75;;;18.52;;
23179;SDS011;11758;45.756;11.432;2022-12-24T03:16:14;38.05;;;18.70;;
23179;SDS011;11758;45.756;11.432;2022-12-24T03:18:42;38.13;;;20.58;;
23179;SDS011;11758;45.756;11.432;2022-12-24T03:21:11;34.00;;;18.38;;
23179;SDS011;11758;45.756;11.432;2022-12-24T03:23:38;35.30;;;19.25;;
23179;SDS011;11758;45.756;11.432;2022-12-24T03:26:06;38.63;;;18.83;;
23179;SDS011;11758;45.756;11.432;2022-12-24T03:28:33;34.85;;;17.58;;
23179;SDS011;11758;45.756;11.432;2022-12-24T03:31:00;35.85;;;18.42;;
23179;SDS011;11758;45.756;11.432;2022-12-24T03:33:28;43.72;;;20.20;;
23179;SDS011;11758;45.756;11.432;2022-12-24T03:35:54;47.38;;;23.30;;
23179;SDS011;11758;45.756;11.432;2022-12-24T03:38:20;56.57;;;27.07;;
23179;SDS011;11758;45.756;11.432;2022-12-24T03:40:47;48.35;;;23.83;;
23179;SDS011;11758;45.756;11.432;2022-12-24T03:43:13;48.83;;;24.50;;
23179;SDS011;11758;45.756;11.432;2022-12-24T03:45:40;46.35;;;24.77;;
23179;SDS011;11758;45.756;11.432;2022-12-24T03:48:07;46.47;;;22.90;;
23179;SDS011;11758;45.756;11.432;2022-12-24T03:50:33;46.57;;;24.27;;
23179;SDS011;11758;45.756;11.432;2022-12-24T03:52:59;49.20;;;25.37;;
23179;SDS011;11758;45.756;11.432;2022-12-24T03:55:25;48.83;;;24.93;;
23179;SDS011;11758;45.756;11.432;2022-12-24T03:57:51;52.70;;;24.33;;
23179;SDS011;11758;45.756;11.432;2022-12-24T04:00:18;49.30;;;25.10;;
23179;SDS011;11758;45.756;11.432;2022-12-24T04:02:44;50.70;;;24.70;;
23179;SDS011;11758;45.756;11.432;2022-12-24T04:05:14;53.17;;;26.23;;
23179;SDS011;11758;45.756;11.432;2022-12-24T04:07:41;49.67;;;24.07;;
23179;SDS011;11758;45.756;11.432;2022-12-24T04:10:07;51.55;;;25.73;;
23179;SDS011;11758;45.756;11.432;2022-12-24T04:12:34;44.83;;;22.92;;
23179;SDS011;11758;45.756;11.432;2022-12-24T04:15:00;43.27;;;21.93;;
23179;SDS011;11758;45.756;11.432;2022-12-24T04:17:26;38.93;;;21.13;;
23179;SDS011;11758;45.756;11.432;2022-12-24T04:19:53;41.95;;;21.95;;
23179;SDS011;11758;45.756;11.432;2022-12-24T04:22:19;41.88;;;22.55;;
23179;SDS011;11758;45.756;11.432;2022-12-24T04:24:45;43.33;;;22.25;;
23179;SDS011;11758;45.756;11.432;2022-12-24T04:27:15;44.47;;;22.45;;
23179;SDS011;11758;45.756;11.432;2022-12-24T04:29:42;36.57;;;18.70;;
23179;SDS011;11758;45.756;11.432;2022-12-24T04:32:08;35.33;;;19.08;;
23179;SDS011;11758;45.756;11.432;2022-12-24T04:34:35;48.53;;;23.63;;
23179;SDS011;11758;45.756;11.432;2022-12-24T04:37:01;45.60;;;24.10;;
23179;SDS011;11758;45.756;11.432;2022-12-24T04:39:27;48.00;;;24.13;;
23179;SDS011;11758;45.756;11.432;2022-12-24T04:41:57;46.38;;;23.85;;
23179;SDS011;11758;45.756;11.432;2022-12-24T04:44:23;47.13;;;23.83;;
23179;SDS011;11758;45.756;11.432;2022-12-24T04:46:50;49.03;;;23.27;;
23179;SDS011;11758;45.756;11.432;2022-12-24T04:49:16;50.70;;;25.85;;
23179;SDS011;11758;45.756;11.432;2022-12-24T04:51:42;47.22;;;24.42;;
23179;SDS011;11758;45.756;11.432;2022-12-24T04:54:08;46.55;;;23.77;;
23179;SDS011;11758;45.756;11.432;2022-12-24T04:56:34;45.70;;;23.27;;
23179;SDS011;11758;45.756;11.432;2022-12-24T04:59:01;37.92;;;19.60;;
23179;SDS011;11758;45.756;11.432;2022-12-24T05:01:28;45.30;;;21.58;;
23179;SDS011;11758;45.756;11.432;2022-12-24T05:03:55;48.45;;;23.25;;
23179;SDS011;11758;45.756;11.432;2022-12-24T05:06:22;49.67;;;25.60;;
23179;SDS011;11758;45.756;11.432;2022-12-24T05:08:49;45.08;;;24.30;;
23179;SDS011;11758;45.756;11.432;2022-12-24T05:11:15;50.67;;;25.23;;
23179;SDS011;11758;45.756;11.432;2022-12-24T05:13:42;49.20;;;24.35;;
23179;SDS011;11758;45.756;11.432;2022-12-24T05:16:09;56.07;;;26.60;;
23179;SDS011;11758;45.756;11.432;2022-12-24T05:18:35;53.07;;;27.30;;
23179;SDS011;11758;45.756;11.432;2022-12-24T05:21:06;54.75;;;25.95;;
23179;SDS011;11758;45.756;11.432;2022-12-24T05:23:32;42.70;;;22.23;;
23179;SDS011;11758;45.756;11.432;2022-12-24T05:28:50;35.53;;;19.13;;
23179;SDS011;11758;45.756;11.432;2022-12-24T05:31:17;38.78;;;19.90;;
23179;SDS011;11758;45.756;11.432;2022-12-24T05:33:43;30.85;;;15.90;;
23179;SDS011;11758;45.756;11.432;2022-12-24T05:36:10;34.45;;;17.13;;
23179;SDS011;11758;45.756;11.432;2022-12-24T05:38:36;35.08;;;18.65;;
23179;SDS011;11758;45.756;11.432;2022-12-24T05:41:03;42.13;;;19.52;;
23179;SDS011;11758;45.756;11.432;2022-12-24T05:43:29;39.25;;;19.38;;
23179;SDS011;11758;45.756;11.432;2022-12-24T05:45:59;38.00;;;19.80;;
23179;SDS011;11758;45.756;11.432;2022-12-24T05:48:25;41.95;;;20.48;;
23179;SDS011;11758;45.756;11.432;2022-12-24T05:50:52;39.47;;;21.58;;
23179;SDS011;11758;45.756;11.432;2022-12-24T05:53:19;50.60;;;24.95;;
23179;SDS011;11758;45.756;11.432;2022-12-24T05:55:45;46.90;;;23.38;;
23179;SDS011;11758;45.756;11.432;2022-12-24T05:58:11;50.10;;;23.97;;
23179;SDS011;11758;45.756;11.432;2022-12-24T06:00:38;45.10;;;23.07;;
23179;SDS011;11758;45.756;11.432;2022-12-24T06:03:04;45.40;;;24.13;;
23179;SDS011;11758;45.756;11.432;2022-12-24T06:05:30;39.53;;;20.73;;
23179;SDS011;11758;45.756;11.432;2022-12-24T06:07:57;29.43;;;16.43;;
23179;SDS011;11758;45.756;11.432;2022-12-24T06:10:23;24.23;;;14.55;;
23179;SDS011;11758;45.756;11.432;2022-12-24T06:12:49;28.25;;;13.77;;
23179;SDS011;11758;45.756;11.432;2022-12-24T06:15:16;33.53;;;16.07;;
23179;SDS011;11758;45.756;11.432;2022-12-24T06:17:42;31.88;;;17.35;;
23179;SDS011;11758;45.756;11.432;2022-12-24T06:20:08;29.13;;;14.23;;
23179;SDS011;11758;45.756;11.432;2022-12-24T06:22:35;27.55;;;14.90;;
23179;SDS011;11758;45.756;11.432;2022-12-24T06:25:01;34.27;;;17.23;;
23179;SDS011;11758;45.756;11.432;2022-12-24T06:27:28;35.20;;;18.65;;
23179;SDS011;11758;45.756;11.432;2022-12-24T06:29:54;33.03;;;18.27;;
23179;SDS011;11758;45.756;11.432;2022-12-24T06:32:20;37.27;;;19.40;;
23179;SDS011;11758;45.756;11.432;2022-12-24T06:34:46;38.40;;;20.92;;
23179;SDS011;11758;45.756;11.432;2022-12-24T06:37:12;54.72;;;25.23;;
23179;SDS011;11758;45.756;11.432;2022-12-24T06:39:43;44.15;;;23.23;;
23179;SDS011;11758;45.756;11.432;2022-12-24T06:42:10;49.23;;;25.70;;
23179;SDS011;11758;45.756;11.432;2022-12-24T06:44:36;50.85;;;24.25;;
23179;SDS011;11758;45.756;11.432;2022-12-24T06:47:02;56.00;;;27.65;;
23179;SDS011;11758;45.756;11.432;2022-12-24T06:49:28;52.38;;;27.25;;
23179;SDS011;11758;45.756;11.432;2022-12-24T06:51:54;50.42;;;27.23;;
23179;SDS011;11758;45.756;11.432;2022-12-24T06:54:20;42.78;;;23.38;;
23179;SDS011;11758;45.756;11.432;2022-12-24T06:56:46;30.75;;;17.70;;
23179;SDS011;11758;45.756;11.432;2022-12-24T06:59:12;31.57;;;15.73;;
23179;SDS011;11758;45.756;11.432;2022-12-24T07:01:38;33.13;;;18.13;;
23179;SDS011;11758;45.756;11.432;2022-12-24T07:04:05;32.83;;;17.92;;
23179;SDS011;11758;45.756;11.432;2022-12-24T07:06:31;37.95;;;21.55;;
23179;SDS011;11758;45.756;11.432;2022-12-24T07:08:57;38.95;;;21.23;;
23179;SDS011;11758;45.756;11.432;2022-12-24T07:11:23;35.97;;;21.10;;
23179;SDS011;11758;45.756;11.432;2022-12-24T07:13:50;40.17;;;21.15;;
23179;SDS011;11758;45.756;11.432;2022-12-24T07:16:16;40.08;;;22.15;;
23179;SDS011;11758;45.756;11.432;2022-12-24T07:18:42;39.70;;;22.25;;
23179;SDS011;11758;45.756;11.432;2022-12-24T07:21:08;46.80;;;25.50;;
23179;SDS011;11758;45.756;11.432;2022-12-24T07:23:35;32.42;;;18.00;;
23179;SDS011;11758;45.756;11.432;2022-12-24T07:26:01;31.00;;;17.70;;
23179;SDS011;11758;45.756;11.432;2022-12-24T07:28:28;30.98;;;16.92;;
23179;SDS011;11758;45.756;11.432;2022-12-24T07:30:58;29.67;;;17.42;;
23179;SDS011;11758;45.756;11.432;2022-12-24T07:33:24;29.15;;;17.10;;
23179;SDS011;11758;45.756;11.432;2022-12-24T07:36:00;30.23;;;17.30;;
23179;SDS011;11758;45.756;11.432;2022-12-24T07:38:27;32.13;;;17.50;;
23179;SDS011;11758;45.756;11.432;2022-12-24T07:40:53;29.58;;;17.73;;
23179;SDS011;11758;45.756;11.432;2022-12-24T07:43:19;33.70;;;17.97;;
23179;SDS011;11758;45.756;11.432;2022-12-24T07:45:45;31.38;;;17.83;;
23179;SDS011;11758;45.756;11.432;2022-12-24T07:48:11;29.58;;;17.17;;
23179;SDS011;11758;45.756;11.432;2022-12-24T07:50:37;31.80;;;16.30;;
23179;SDS011;11758;45.756;11.432;2022-12-24T07:53:03;42.10;;;18.80;;
23179;SDS011;11758;45.756;11.432;2022-12-24T07:55:29;37.88;;;19.73;;
23179;SDS011;11758;45.756;11.432;2022-12-24T07:57:55;37.50;;;19.38;;
23179;SDS011;11758;45.756;11.432;2022-12-24T08:00:21;40.15;;;20.65;;
23179;SDS011;11758;45.756;11.432;2022-12-24T08:02:47;40.65;;;20.77;;
23179;SDS011;11758;45.756;11.432;2022-12-24T08:05:14;44.38;;;21.67;;
23179;SDS011;11758;45.756;11.432;2022-12-24T08:07:40;49.70;;;23.40;;
23179;SDS011;11758;45.756;11.432;2022-12-24T08:10:07;107.53;;;49.83;;
23179;SDS011;11758;45.756;11.432;2022-12-24T08:12:33;63.67;;;29.17;;
23179;SDS011;11758;45.756;11.432;2022-12-24T08:14:59;44.53;;;23.15;;
23179;SDS011;11758;45.756;11.432;2022-12-24T08:17:26;42.05;;;21.63;;
23179;SDS011;11758;45.756;11.432;2022-12-24T08:19:52;42.70;;;22.50;;
23179;SDS011;11758;45.756;11.432;2022-12-24T08:22:18;33.60;;;18.13;;
23179;SDS011;11758;45.756;11.432;2022-12-24T08:24:44;35.30;;;20.17;;
23179;SDS011;11758;45.756;11.432;2022-12-24T08:27:10;37.80;;;19.50;;
23179;SDS011;11758;45.756;11.432;2022-12-24T08:29:36;32.03;;;17.52;;
23179;SDS011;11758;45.756;11.432;2022-12-24T08:32:02;44.10;;;22.60;;
23179;SDS011;11758;45.756;11.432;2022-12-24T08:34:29;41.83;;;22.63;;
23179;SDS011;11758;45.756;11.432;2022-12-24T08:36:56;40.17;;;23.33;;
23179;SDS011;11758;45.756;11.432;2022-12-24T08:39:22;57.58;;;31.77;;
23179;SDS011;11758;45.756;11.432;2022-12-24T08:41:49;44.78;;;24.20;;
23179;SDS011;11758;45.756;11.432;2022-12-24T08:44:15;54.10;;;28.53;;
23179;SDS011;11758;45.756;11.432;2022-12-24T08:46:42;44.22;;;24.95;;
23179;SDS011;11758;45.756;11.432;2022-12-24T08:49:08;55.93;;;28.00;;
23179;SDS011;11758;45.756;11.432;2022-12-24T08:51:34;73.95;;;37.88;;
23179;SDS011;11758;45.756;11.432;2022-12-24T08:54:00;36.20;;;19.85;;
23179;SDS011;11758;45.756;11.432;2022-12-24T08:56:26;41.57;;;22.13;;
23179;SDS011;11758;45.756;11.432;2022-12-24T08:58:52;54.33;;;23.00;;
23179;SDS011;11758;45.756;11.432;2022-12-24T09:01:19;72.63;;;32.07;;
23179;SDS011;11758;45.756;11.432;2022-12-24T09:03:45;61.88;;;30.60;;
23179;SDS011;11758;45.756;11.432;2022-12-24T09:06:12;66.25;;;33.58;;
23179;SDS011;11758;45.756;11.432;2022-12-24T09:08:38;64.30;;;30.45;;
23179;SDS011;11758;45.756;11.432;2022-12-24T09:11:05;52.63;;;28.17;;
23179;SDS011;11758;45.756;11.432;2022-12-24T09:13:32;70.22;;;33.75;;
23179;SDS011;11758;45.756;11.432;2022-12-24T09:15:58;66.90;;;34.25;;
23179;SDS011;11758;45.756;11.432;2022-12-24T09:18:25;54.72;;;29.73;;
23179;SDS011;11758;45.756;11.432;2022-12-24T09:20:51;47.10;;;23.35;;
23179;SDS011;11758;45.756;11.432;2022-12-24T09:23:22;45.13;;;23.40;;
23179;SDS011;11758;45.756;11.432;2022-12-24T09:25:49;46.22;;;22.98;;
23179;SDS011;11758;45.756;11.432;2022-12-24T09:28:15;51.20;;;23.45;;
23179;SDS011;11758;45.756;11.432;2022-12-24T09:30:41;55.42;;;28.00;;
23179;SDS011;11758;45.756;11.432;2022-12-24T09:33:07;69.30;;;32.22;;
23179;SDS011;11758;45.756;11.432;2022-12-24T09:35:33;57.58;;;29.70;;
23179;SDS011;11758;45.756;11.432;2022-12-24T09:37:59;54.13;;;25.42;;
23179;SDS011;11758;45.756;11.432;2022-12-24T09:40:32;46.22;;;23.98;;
23179;SDS011;11758;45.756;11.432;2022-12-24T09:43:02;69.88;;;32.13;;
23179;SDS011;11758;45.756;11.432;2022-12-24T09:45:33;59.03;;;34.10;;
23179;SDS011;11758;45.756;11.432;2022-12-24T09:48:19;55.97;;;28.73;;
23179;SDS011;11758;45.756;11.432;2022-12-24T09:50:49;51.88;;;23.85;;
23179;SDS011;11758;45.756;11.432;2022-12-24T09:56:08;43.95;;;20.65;;
23179;SDS011;11758;45.756;11.432;2022-12-24T09:58:39;37.70;;;20.15;;
23179;SDS011;11758;45.756;11.432;2022-12-24T10:01:10;49.28;;;24.83;;
23179;SDS011;11758;45.756;11.432;2022-12-24T10:03:36;52.75;;;27.05;;
23179;SDS011;11758;45.756;11.432;2022-12-24T10:08:42;47.83;;;24.70;;
23179;SDS011;11758;45.756;11.432;2022-12-24T10:11:13;57.15;;;28.63;;
23179;SDS011;11758;45.756;11.432;2022-12-24T10:19:15;51.97;;;29.67;;
23179;SDS011;11758;45.756;11.432;2022-12-24T10:27:18;55.00;;;31.15;;
23179;SDS011;11758;45.756;11.432;2022-12-24T10:29:29;54.22;;;29.45;;
23179;SDS011;11758;45.756;11.432;2022-12-24T10:34:23;37.13;;;23.05;;
23179;SDS011;11758;45.756;11.432;2022-12-24T10:36:51;40.50;;;22.15;;
23179;SDS011;11758;45.756;11.432;2022-12-24T10:39:19;47.03;;;25.35;;
23179;SDS011;11758;45.756;11.432;2022-12-24T10:41:50;42.13;;;24.23;;
23179;SDS011;11758;45.756;11.432;2022-12-24T10:44:17;42.50;;;24.25;;
23179;SDS011;11758;45.756;11.432;2022-12-24T10:46:44;38.15;;;20.90;;
23179;SDS011;11758;45.756;11.432;2022-12-24T10:49:13;34.03;;;18.75;;
23179;SDS011;11758;45.756;11.432;2022-12-24T10:51:50;32.45;;;19.23;;
23179;SDS011;11758;45.756;11.432;2022-12-24T10:54:22;29.42;;;18.10;;
23179;SDS011;11758;45.756;11.432;2022-12-24T10:56:50;33.08;;;18.00;;
23179;SDS011;11758;45.756;11.432;2022-12-24T11:01:49;47.83;;;24.23;;
23179;SDS011;11758;45.756;11.432;2022-12-24T11:04:16;38.03;;;22.63;;
23179;SDS011;11758;45.756;11.432;2022-12-24T11:09:31;35.63;;;20.48;;
23179;SDS011;11758;45.756;11.432;2022-12-24T11:11:59;32.75;;;18.77;;
23179;SDS011;11758;45.756;11.432;2022-12-24T11:14:31;30.77;;;17.15;;
23179;SDS011;11758;45.756;11.432;2022-12-24T11:16:58;29.95;;;18.65;;
23179;SDS011;11758;45.756;11.432;2022-12-24T11:19:29;30.52;;;18.58;;
23179;SDS011;11758;45.756;11.432;2022-12-24T11:22:03;32.53;;;18.65;;
23179;SDS011;11758;45.756;11.432;2022-12-24T11:24:33;30.08;;;17.27;;
23179;SDS011;11758;45.756;11.432;2022-12-24T11:27:23;26.88;;;17.30;;
23179;SDS011;11758;45.756;11.432;2022-12-24T11:29:50;30.65;;;17.20;;
23179;SDS011;11758;45.756;11.432;2022-12-24T11:32:18;27.10;;;17.42;;
23179;SDS011;11758;45.756;11.432;2022-12-24T11:34:44;32.95;;;18.73;;
23179;SDS011;11758;45.756;11.432;2022-12-24T11:37:20;26.27;;;17.25;;
23179;SDS011;11758;45.756;11.432;2022-12-24T11:39:54;32.90;;;19.23;;
23179;SDS011;11758;45.756;11.432;2022-12-24T11:42:41;29.75;;;18.98;;
23179;SDS011;11758;45.756;11.432;2022-12-24T11:45:28;29.38;;;18.83;;
23179;SDS011;11758;45.756;11.432;2022-12-24T11:47:53;30.15;;;18.30;;
23179;SDS011;11758;45.756;11.432;2022-12-24T11:50:28;29.20;;;17.50;;
23179;SDS011;11758;45.756;11.432;2022-12-24T12:00:38;31.75;;;19.15;;
23179;SDS011;11758;45.756;11.432;2022-12-24T12:03:09;32.60;;;20.60;;
23179;SDS011;11758;45.756;11.432;2022-12-24T12:05:43;31.80;;;20.30;;
23179;SDS011;11758;45.756;11.432;2022-12-24T12:08:12;36.03;;;21.40;;
23179;SDS011;11758;45.756;11.432;2022-12-24T12:10:39;32.08;;;19.05;;
23179;SDS011;11758;45.756;11.432;2022-12-24T12:13:15;34.25;;;18.85;;
23179;SDS011;11758;45.756;11.432;2022-12-24T12:16:00;30.25;;;18.45;;
23179;SDS011;11758;45.756;11.432;2022-12-24T12:18:31;30.85;;;19.60;;
23179;SDS011;11758;45.756;11.432;2022-12-24T12:21:05;29.70;;;18.38;;
23179;SDS011;11758;45.756;11.432;2022-12-24T12:23:34;35.35;;;18.63;;
23179;SDS011;11758;45.756;11.432;2022-12-24T12:28:48;30.60;;;18.55;;
23179;SDS011;11758;45.756;11.432;2022-12-24T12:36:35;28.75;;;19.05;;
23179;SDS011;11758;45.756;11.432;2022-12-24T12:39:03;29.83;;;19.30;;
23179;SDS011;11758;45.756;11.432;2022-12-24T12:46:30;30.25;;;19.42;;
23179;SDS011;11758;45.756;11.432;2022-12-24T12:49:02;32.20;;;19.65;;
23179;SDS011;11758;45.756;11.432;2022-12-24T12:56:32;37.28;;;21.95;;
23179;SDS011;11758;45.756;11.432;2022-12-24T12:59:16;43.22;;;23.00;;
23179;SDS011;11758;45.756;11.432;2022-12-24T13:01:48;44.17;;;23.80;;
23179;SDS011;11758;45.756;11.432;2022-12-24T13:09:20;31.05;;;20.60;;
23179;SDS011;11758;45.756;11.432;2022-12-24T13:17:16;33.42;;;20.88;;
23179;SDS011;11758;45.756;11.432;2022-12-24T13:19:59;32.20;;;20.05;;
23179;SDS011;11758;45.756;11.432;2022-12-24T13:22:29;32.70;;;19.20;;
23179;SDS011;11758;45.756;11.432;2022-12-24T13:24:55;33.88;;;20.40;;
23179;SDS011;11758;45.756;11.432;2022-12-24T13:27:25;30.38;;;19.08;;
23179;SDS011;11758;45.756;11.432;2022-12-24T13:32:37;34.72;;;20.80;;
23179;SDS011;11758;45.756;11.432;2022-12-24T13:35:25;34.53;;;21.65;;
23179;SDS011;11758;45.756;11.432;2022-12-24T13:37:49;41.25;;;22.55;;
23179;SDS011;11758;45.756;11.432;2022-12-24T13:40:25;38.92;;;23.48;;
23179;SDS011;11758;45.756;11.432;2022-12-24T13:53:18;52.03;;;28.33;;
23179;SDS011;11758;45.756;11.432;2022-12-24T13:55:50;46.63;;;25.15;;
23179;SDS011;11758;45.756;11.432;2022-12-24T13:58:16;42.63;;;24.08;;
23179;SDS011;11758;45.756;11.432;2022-12-24T14:00:55;42.70;;;22.60;;
23179;SDS011;11758;45.756;11.432;2022-12-24T14:04:07;33.83;;;21.30;;
23179;SDS011;11758;45.756;11.432;2022-12-24T14:06:09;39.50;;;22.38;;
23179;SDS011;11758;45.756;11.432;2022-12-24T14:08:40;34.28;;;22.15;;
23179;SDS011;11758;45.756;11.432;2022-12-24T14:16:20;38.45;;;22.33;;
23179;SDS011;11758;45.756;11.432;2022-12-24T14:21:33;44.95;;;22.85;;
23179;SDS011;11758;45.756;11.432;2022-12-24T14:24:05;38.33;;;22.63;;
23179;SDS011;11758;45.756;11.432;2022-12-24T14:26:35;35.95;;;21.63;;
23179;SDS011;11758;45.756;11.432;2022-12-24T14:29:15;35.25;;;22.88;;
23179;SDS011;11758;45.756;11.432;2022-12-24T14:31:49;38.72;;;23.63;;
23179;SDS011;11758;45.756;11.432;2022-12-24T14:34:16;46.78;;;25.20;;
23179;SDS011;11758;45.756;11.432;2022-12-24T14:36:42;44.67;;;25.02;;
23179;SDS011;11758;45.756;11.432;2022-12-24T14:39:10;43.72;;;26.02;;
23179;SDS011;11758;45.756;11.432;2022-12-24T14:44:22;47.42;;;27.13;;
23179;SDS011;11758;45.756;11.432;2022-12-24T14:46:57;38.75;;;23.05;;
23179;SDS011;11758;45.756;11.432;2022-12-24T14:54:54;35.95;;;21.77;;
23179;SDS011;11758;45.756;11.432;2022-12-24T14:57:24;40.63;;;22.58;;
23179;SDS011;11758;45.756;11.432;2022-12-24T15:02:24;39.42;;;21.48;;
23179;SDS011;11758;45.756;11.432;2022-12-24T15:07:55;36.35;;;19.33;;
23179;SDS011;11758;45.756;11.432;2022-12-24T15:10:38;34.30;;;19.35;;
23179;SDS011;11758;45.756;11.432;2022-12-24T15:13:06;39.80;;;22.75;;
23179;SDS011;11758;45.756;11.432;2022-12-24T15:15:33;75.78;;;35.08;;
23179;SDS011;11758;45.756;11.432;2022-12-24T15:18:00;39.50;;;21.90;;
23179;SDS011;11758;45.756;11.432;2022-12-24T15:20:27;35.03;;;21.40;;
23179;SDS011;11758;45.756;11.432;2022-12-24T15:22:54;34.33;;;20.85;;
23179;SDS011;11758;45.756;11.432;2022-12-24T15:25:25;33.50;;;20.55;;
23179;SDS011;11758;45.756;11.432;2022-12-24T15:27:51;33.92;;;20.38;;
23179;SDS011;11758;45.756;11.432;2022-12-24T15:30:22;35.78;;;21.23;;
23179;SDS011;11758;45.756;11.432;2022-12-24T15:32:49;36.50;;;20.92;;
23179;SDS011;11758;45.756;11.432;2022-12-24T15:38:04;42.30;;;21.30;;
23179;SDS011;11758;45.756;11.432;2022-12-24T15:40:31;42.08;;;22.73;;
23179;SDS011;11758;45.756;11.432;2022-12-24T15:42:58;44.55;;;24.17;;
23179;SDS011;11758;45.756;11.432;2022-12-24T15:45:30;76.25;;;39.58;;
23179;SDS011;11758;45.756;11.432;2022-12-24T15:48:07;71.00;;;35.95;;
23179;SDS011;11758;45.756;11.432;2022-12-24T15:50:44;70.43;;;39.30;;
23179;SDS011;11758;45.756;11.432;2022-12-24T15:53:29;79.05;;;41.40;;
23179;SDS011;11758;45.756;11.432;2022-12-24T15:58:39;49.25;;;26.65;;
23179;SDS011;11758;45.756;11.432;2022-12-24T16:03:35;83.05;;;39.05;;
23179;SDS011;11758;45.756;11.432;2022-12-24T16:08:35;48.00;;;28.02;;
23179;SDS011;11758;45.756;11.432;2022-12-24T16:11:07;46.53;;;27.02;;
23179;SDS011;11758;45.756;11.432;2022-12-24T16:13:34;51.42;;;26.75;;
23179;SDS011;11758;45.756;11.432;2022-12-24T16:18:32;39.10;;;24.00;;
23179;SDS011;11758;45.756;11.432;2022-12-24T16:21:09;39.13;;;22.70;;
23179;SDS011;11758;45.756;11.432;2022-12-24T16:23:47;37.53;;;21.35;;
23179;SDS011;11758;45.756;11.432;2022-12-24T16:26:15;57.90;;;31.33;;
23179;SDS011;11758;45.756;11.432;2022-12-24T16:28:41;47.65;;;27.48;;